sensor_id;sensor_type;location;lat;lon;timestamp;P1;durP1;ratioP1;P2;durP2;ratioP2
16440;SDS011;8330;-33.858;151.184;2023-02-11T00:02:07;6.63;;;2.50;;
16440;SDS011;8330;-33.858;151.184;2023-02-11T00:04:39;4.55;;;2.20;;
16440;SDS011;8330;-33.858;151.184;2023-02-11T00:07:11;6.15;;;2.50;;
16440;SDS011;8330;-33.858;151.184;2023-02-11T00:09:42;3.55;;;2.20;;
16440;SDS011;8330;-33.858;151.184;2023-02-11T00:12:13;8.25;;;2.30;;
16440;SDS011;8330;-33.858;151.184;2023-02-11T00:14:44;4.18;;;1.90;;
16440;SDS011;8330;-33.858;151.184;2023-02-11T00:17:18;4.78;;;2.50;;
16440;SDS011;8330;-33.858;151.184;2023-02-11T00:19:49;6.13;;;2.50;;
16440;SDS011;8330;-33.858;151.184;2023-02-11T00:22:23;3.80;;;2.25;;
16440;SDS011;8330;-33.858;151.184;2023-02-11T00:24:54;2.42;;;1.73;;
16440;SDS011;8330;-33.858;151.184;2023-02-11T00:27:26;5.97;;;2.33;;
16440;SDS011;8330;-33.858;151.184;2023-02-11T00:29:57;4.93;;;2.35;;
16440;SDS011;8330;-33.858;151.184;2023-02-11T00:32:30;2.75;;;2.13;;
16440;SDS011;8330;-33.858;151.184;2023-02-11T00:35:01;3.30;;;2.03;;
16440;SDS011;8330;-33.858;151.184;2023-02-11T00:37:32;5.85;;;2.10;;
16440;SDS011;8330;-33.858;151.184;2023-02-11T00:40:03;2.70;;;1.98;;
16440;SDS011;8330;-33.858;151.184;2023-02-11T00:42:34;3.75;;;2.10;;
16440;SDS011;8330;-33.858;151.184;2023-02-11T00:45:06;3.13;;;2.13;;
16440;SDS011;8330;-33.858;151.184;2023-02-11T00:47:40;4.32;;;2.35;;
16440;SDS011;8330;-33.858;151.184;2023-02-11T00:50:11;4.75;;;2.55;;
16440;SDS011;8330;-33.858;151.184;2023-02-11T00:52:42;3.38;;;1.88;;
16440;SDS011;8330;-33.858;151.184;2023-02-11T00:55:13;3.15;;;2.17;;
16440;SDS011;8330;-33.858;151.184;2023-02-11T00:57:44;3.45;;;2.10;;
16440;SDS011;8330;-33.858;151.184;2023-02-11T01:02:49;4.82;;;2.13;;
16440;SDS011;8330;-33.858;151.184;2023-02-11T01:05:20;5.15;;;2.20;;
16440;SDS011;8330;-33.858;151.184;2023-02-11T01:07:51;5.45;;;2.42;;
16440;SDS011;8330;-33.858;151.184;2023-02-11T01:10:22;5.53;;;2.97;;
16440;SDS011;8330;-33.858;151.184;2023-02-11T01:12:54;3.80;;;2.42;;
16440;SDS011;8330;-33.858;151.184;2023-02-11T01:15:25;6.68;;;2.50;;
16440;SDS011;8330;-33.858;151.184;2023-02-11T01:17:58;5.55;;;2.33;;
16440;SDS011;8330;-33.858;151.184;2023-02-11T01:20:29;6.47;;;2.30;;
16440;SDS011;8330;-33.858;151.184;2023-02-11T01:23:00;5.40;;;2.13;;
16440;SDS011;8330;-33.858;151.184;2023-02-11T01:25:31;5.13;;;2.40;;
16440;SDS011;8330;-33.858;151.184;2023-02-11T01:28:02;5.00;;;2.35;;
16440;SDS011;8330;-33.858;151.184;2023-02-11T01:30:33;5.07;;;2.22;;
16440;SDS011;8330;-33.858;151.184;2023-02-11T01:33:06;7.93;;;2.20;;
16440;SDS011;8330;-33.858;151.184;2023-02-11T01:35:38;4.78;;;1.95;;
16440;SDS011;8330;-33.858;151.184;2023-02-11T01:38:13;5.80;;;1.80;;
16440;SDS011;8330;-33.858;151.184;2023-02-11T01:40:49;3.50;;;1.80;;
16440;SDS011;8330;-33.858;151.184;2023-02-11T01:43:22;3.63;;;2.00;;
16440;SDS011;8330;-33.858;151.184;2023-02-11T01:45:58;5.63;;;2.13;;
16440;SDS011;8330;-33.858;151.184;2023-02-11T01:48:35;4.70;;;1.88;;
16440;SDS011;8330;-33.858;151.184;2023-02-11T01:51:11;3.60;;;1.92;;
16440;SDS011;8330;-33.858;151.184;2023-02-11T01:53:45;5.18;;;2.08;;
16440;SDS011;8330;-33.858;151.184;2023-02-11T01:56:34;6.13;;;2.75;;
16440;SDS011;8330;-33.858;151.184;2023-02-11T01:59:27;6.35;;;2.33;;
16440;SDS011;8330;-33.858;151.184;2023-02-11T02:02:02;4.22;;;2.20;;
16440;SDS011;8330;-33.858;151.184;2023-02-11T02:04:43;4.32;;;2.38;;
16440;SDS011;8330;-33.858;151.184;2023-02-11T02:07:21;5.45;;;2.30;;
16440;SDS011;8330;-33.858;151.184;2023-02-11T02:09:59;4.63;;;2.00;;
16440;SDS011;8330;-33.858;151.184;2023-02-11T02:12:34;4.28;;;2.13;;
16440;SDS011;8330;-33.858;151.184;2023-02-11T02:15:19;3.88;;;2.10;;
16440;SDS011;8330;-33.858;151.184;2023-02-11T02:17:59;4.50;;;2.20;;
16440;SDS011;8330;-33.858;151.184;2023-02-11T02:27:02;5.07;;;2.35;;
16440;SDS011;8330;-33.858;151.184;2023-02-11T02:33:11;4.70;;;2.13;;
16440;SDS011;8330;-33.858;151.184;2023-02-11T02:35:53;9.20;;;2.28;;
16440;SDS011;8330;-33.858;151.184;2023-02-11T02:38:34;3.55;;;2.00;;
16440;SDS011;8330;-33.858;151.184;2023-02-11T02:41:09;5.90;;;2.00;;
16440;SDS011;8330;-33.858;151.184;2023-02-11T02:43:43;8.60;;;2.30;;
16440;SDS011;8330;-33.858;151.184;2023-02-11T02:46:16;4.82;;;2.03;;
16440;SDS011;8330;-33.858;151.184;2023-02-11T02:48:51;5.18;;;2.00;;
16440;SDS011;8330;-33.858;151.184;2023-02-11T02:51:26;3.97;;;2.00;;
16440;SDS011;8330;-33.858;151.184;2023-02-11T02:54:23;5.72;;;2.30;;
16440;SDS011;8330;-33.858;151.184;2023-02-11T02:57:07;4.15;;;2.03;;
16440;SDS011;8330;-33.858;151.184;2023-02-11T02:59:50;3.72;;;1.90;;
16440;SDS011;8330;-33.858;151.184;2023-02-11T03:02:40;4.68;;;2.10;;
16440;SDS011;8330;-33.858;151.184;2023-02-11T03:05:24;6.15;;;1.80;;
16440;SDS011;8330;-33.858;151.184;2023-02-11T03:08:04;4.95;;;1.95;;
16440;SDS011;8330;-33.858;151.184;2023-02-11T03:10:41;2.78;;;1.67;;
16440;SDS011;8330;-33.858;151.184;2023-02-11T03:13:15;5.95;;;2.92;;
16440;SDS011;8330;-33.858;151.184;2023-02-11T03:15:49;5.70;;;3.30;;
16440;SDS011;8330;-33.858;151.184;2023-02-11T03:18:23;5.38;;;2.20;;
16440;SDS011;8330;-33.858;151.184;2023-02-11T03:20:58;3.90;;;2.28;;
16440;SDS011;8330;-33.858;151.184;2023-02-11T03:23:33;4.78;;;2.10;;
16440;SDS011;8330;-33.858;151.184;2023-02-11T03:26:17;6.38;;;1.90;;
16440;SDS011;8330;-33.858;151.184;2023-02-11T03:28:58;5.43;;;2.00;;
16440;SDS011;8330;-33.858;151.184;2023-02-11T03:31:34;4.43;;;2.22;;
16440;SDS011;8330;-33.858;151.184;2023-02-11T03:34:10;6.28;;;1.70;;
16440;SDS011;8330;-33.858;151.184;2023-02-11T03:36:47;3.58;;;1.55;;
16440;SDS011;8330;-33.858;151.184;2023-02-11T03:39:23;4.45;;;2.13;;
16440;SDS011;8330;-33.858;151.184;2023-02-11T03:41:57;3.83;;;1.80;;
16440;SDS011;8330;-33.858;151.184;2023-02-11T03:44:30;3.85;;;1.85;;
16440;SDS011;8330;-33.858;151.184;2023-02-11T03:47:06;4.88;;;2.17;;
16440;SDS011;8330;-33.858;151.184;2023-02-11T03:49:38;4.00;;;1.73;;
16440;SDS011;8330;-33.858;151.184;2023-02-11T03:52:13;6.30;;;2.10;;
16440;SDS011;8330;-33.858;151.184;2023-02-11T03:54:46;5.13;;;1.50;;
16440;SDS011;8330;-33.858;151.184;2023-02-11T03:57:22;3.30;;;1.58;;
16440;SDS011;8330;-33.858;151.184;2023-02-11T03:59:53;4.38;;;1.83;;
16440;SDS011;8330;-33.858;151.184;2023-02-11T04:02:34;6.45;;;1.70;;
16440;SDS011;8330;-33.858;151.184;2023-02-11T04:05:06;5.15;;;1.70;;
16440;SDS011;8330;-33.858;151.184;2023-02-11T04:07:41;6.38;;;1.80;;
16440;SDS011;8330;-33.858;151.184;2023-02-11T04:10:13;5.60;;;1.67;;
16440;SDS011;8330;-33.858;151.184;2023-02-11T04:12:44;4.55;;;1.70;;
16440;SDS011;8330;-33.858;151.184;2023-02-11T04:15:15;7.35;;;1.90;;
16440;SDS011;8330;-33.858;151.184;2023-02-11T04:17:49;5.47;;;1.80;;
16440;SDS011;8330;-33.858;151.184;2023-02-11T04:20:20;6.72;;;1.88;;
16440;SDS011;8330;-33.858;151.184;2023-02-11T04:22:53;3.22;;;1.52;;
16440;SDS011;8330;-33.858;151.184;2023-02-11T04:25:24;3.80;;;1.63;;
16440;SDS011;8330;-33.858;151.184;2023-02-11T04:27:54;7.47;;;1.80;;
16440;SDS011;8330;-33.858;151.184;2023-02-11T04:30:25;3.40;;;1.75;;
16440;SDS011;8330;-33.858;151.184;2023-02-11T04:32:57;3.08;;;1.60;;
16440;SDS011;8330;-33.858;151.184;2023-02-11T04:35:28;5.38;;;1.88;;
16440;SDS011;8330;-33.858;151.184;2023-02-11T04:38:01;6.10;;;1.60;;
16440;SDS011;8330;-33.858;151.184;2023-02-11T04:40:32;3.60;;;1.58;;
16440;SDS011;8330;-33.858;151.184;2023-02-11T04:43:06;4.55;;;1.70;;
16440;SDS011;8330;-33.858;151.184;2023-02-11T04:45:36;2.80;;;1.60;;
16440;SDS011;8330;-33.858;151.184;2023-02-11T04:48:07;4.00;;;1.80;;
16440;SDS011;8330;-33.858;151.184;2023-02-11T04:50:38;6.85;;;1.92;;
16440;SDS011;8330;-33.858;151.184;2023-02-11T04:53:11;3.60;;;1.90;;
16440;SDS011;8330;-33.858;151.184;2023-02-11T04:55:42;3.42;;;1.85;;
16440;SDS011;8330;-33.858;151.184;2023-02-11T04:58:16;3.67;;;2.10;;
16440;SDS011;8330;-33.858;151.184;2023-02-11T05:00:48;7.40;;;2.10;;
16440;SDS011;8330;-33.858;151.184;2023-02-11T05:03:19;4.72;;;1.60;;
16440;SDS011;8330;-33.858;151.184;2023-02-11T05:05:50;6.15;;;1.80;;
16440;SDS011;8330;-33.858;151.184;2023-02-11T05:08:23;4.57;;;2.00;;
16440;SDS011;8330;-33.858;151.184;2023-02-11T05:10:54;4.38;;;2.00;;
16440;SDS011;8330;-33.858;151.184;2023-02-11T05:13:27;3.20;;;1.90;;
16440;SDS011;8330;-33.858;151.184;2023-02-11T05:15:58;4.40;;;2.10;;
16440;SDS011;8330;-33.858;151.184;2023-02-11T05:18:29;5.28;;;1.75;;
16440;SDS011;8330;-33.858;151.184;2023-02-11T05:21:04;3.38;;;1.80;;
16440;SDS011;8330;-33.858;151.184;2023-02-11T05:23:38;3.55;;;1.58;;
16440;SDS011;8330;-33.858;151.184;2023-02-11T05:26:09;8.82;;;2.30;;
16440;SDS011;8330;-33.858;151.184;2023-02-11T05:28:43;3.85;;;1.70;;
16440;SDS011;8330;-33.858;151.184;2023-02-11T05:31:14;5.47;;;2.20;;
16440;SDS011;8330;-33.858;151.184;2023-02-11T05:33:45;5.90;;;2.03;;
16440;SDS011;8330;-33.858;151.184;2023-02-11T05:36:18;4.18;;;2.03;;
16440;SDS011;8330;-33.858;151.184;2023-02-11T05:38:51;5.03;;;1.80;;
16440;SDS011;8330;-33.858;151.184;2023-02-11T05:41:22;4.47;;;1.70;;
16440;SDS011;8330;-33.858;151.184;2023-02-11T05:43:52;5.82;;;1.98;;
16440;SDS011;8330;-33.858;151.184;2023-02-11T05:46:26;4.20;;;1.90;;
16440;SDS011;8330;-33.858;151.184;2023-02-11T05:48:57;3.65;;;1.90;;
16440;SDS011;8330;-33.858;151.184;2023-02-11T05:51:28;6.95;;;1.95;;
16440;SDS011;8330;-33.858;151.184;2023-02-11T05:54:01;6.18;;;1.75;;
16440;SDS011;8330;-33.858;151.184;2023-02-11T05:56:32;6.07;;;1.80;;
16440;SDS011;8330;-33.858;151.184;2023-02-11T05:59:03;5.30;;;1.80;;
16440;SDS011;8330;-33.858;151.184;2023-02-11T06:01:33;4.55;;;1.70;;
16440;SDS011;8330;-33.858;151.184;2023-02-11T06:04:05;6.88;;;1.55;;
16440;SDS011;8330;-33.858;151.184;2023-02-11T06:06:36;6.43;;;1.63;;
16440;SDS011;8330;-33.858;151.184;2023-02-11T06:09:09;6.57;;;2.15;;
16440;SDS011;8330;-33.858;151.184;2023-02-11T06:11:40;7.22;;;2.00;;
16440;SDS011;8330;-33.858;151.184;2023-02-11T06:14:14;5.07;;;2.00;;
16440;SDS011;8330;-33.858;151.184;2023-02-11T06:16:45;11.20;;;1.98;;
16440;SDS011;8330;-33.858;151.184;2023-02-11T06:19:17;5.40;;;1.75;;
16440;SDS011;8330;-33.858;151.184;2023-02-11T06:21:48;4.78;;;1.67;;
16440;SDS011;8330;-33.858;151.184;2023-02-11T06:24:21;4.90;;;1.73;;
16440;SDS011;8330;-33.858;151.184;2023-02-11T06:26:52;3.67;;;1.60;;
16440;SDS011;8330;-33.858;151.184;2023-02-11T06:29:24;7.32;;;1.90;;
16440;SDS011;8330;-33.858;151.184;2023-02-11T06:31:58;4.35;;;1.63;;
16440;SDS011;8330;-33.858;151.184;2023-02-11T06:34:32;4.40;;;1.67;;
16440;SDS011;8330;-33.858;151.184;2023-02-11T06:37:05;5.85;;;1.83;;
16440;SDS011;8330;-33.858;151.184;2023-02-11T06:39:38;3.67;;;1.40;;
16440;SDS011;8330;-33.858;151.184;2023-02-11T06:42:09;8.98;;;1.80;;
16440;SDS011;8330;-33.858;151.184;2023-02-11T06:44:40;8.55;;;2.35;;
16440;SDS011;8330;-33.858;151.184;2023-02-11T06:47:11;6.60;;;1.80;;
16440;SDS011;8330;-33.858;151.184;2023-02-11T06:49:42;5.45;;;1.75;;
16440;SDS011;8330;-33.858;151.184;2023-02-11T06:52:13;7.13;;;1.90;;
16440;SDS011;8330;-33.858;151.184;2023-02-11T06:54:46;6.63;;;1.73;;
16440;SDS011;8330;-33.858;151.184;2023-02-11T06:57:17;9.32;;;1.90;;
16440;SDS011;8330;-33.858;151.184;2023-02-11T06:59:48;6.45;;;1.90;;
16440;SDS011;8330;-33.858;151.184;2023-02-11T07:02:19;6.85;;;2.00;;
16440;SDS011;8330;-33.858;151.184;2023-02-11T07:04:50;5.85;;;1.80;;
16440;SDS011;8330;-33.858;151.184;2023-02-11T07:07:21;11.35;;;2.13;;
16440;SDS011;8330;-33.858;151.184;2023-02-11T07:10:00;4.90;;;1.55;;
16440;SDS011;8330;-33.858;151.184;2023-02-11T07:12:31;5.43;;;1.88;;
16440;SDS011;8330;-33.858;151.184;2023-02-11T07:15:03;6.13;;;1.88;;
16440;SDS011;8330;-33.858;151.184;2023-02-11T07:17:36;9.60;;;2.05;;
16440;SDS011;8330;-33.858;151.184;2023-02-11T07:20:08;9.75;;;2.33;;
16440;SDS011;8330;-33.858;151.184;2023-02-11T07:22:40;7.18;;;1.88;;
16440;SDS011;8330;-33.858;151.184;2023-02-11T07:25:13;10.90;;;2.60;;
16440;SDS011;8330;-33.858;151.184;2023-02-11T07:27:45;7.25;;;1.80;;
16440;SDS011;8330;-33.858;151.184;2023-02-11T07:30:16;10.93;;;2.05;;
16440;SDS011;8330;-33.858;151.184;2023-02-11T07:32:50;7.82;;;2.15;;
16440;SDS011;8330;-33.858;151.184;2023-02-11T07:35:21;6.35;;;1.98;;
16440;SDS011;8330;-33.858;151.184;2023-02-11T07:37:53;6.88;;;1.75;;
16440;SDS011;8330;-33.858;151.184;2023-02-11T07:40:25;5.45;;;1.90;;
16440;SDS011;8330;-33.858;151.184;2023-02-11T07:42:56;8.80;;;1.75;;
16440;SDS011;8330;-33.858;151.184;2023-02-11T07:45:41;8.13;;;1.90;;
16440;SDS011;8330;-33.858;151.184;2023-02-11T07:48:12;4.75;;;1.70;;
16440;SDS011;8330;-33.858;151.184;2023-02-11T07:50:45;6.45;;;2.03;;
16440;SDS011;8330;-33.858;151.184;2023-02-11T07:53:16;6.22;;;1.90;;
16440;SDS011;8330;-33.858;151.184;2023-02-11T07:55:48;7.95;;;2.13;;
16440;SDS011;8330;-33.858;151.184;2023-02-11T07:58:20;7.55;;;1.80;;
16440;SDS011;8330;-33.858;151.184;2023-02-11T08:00:51;6.43;;;2.03;;
16440;SDS011;8330;-33.858;151.184;2023-02-11T08:03:22;11.10;;;2.70;;
16440;SDS011;8330;-33.858;151.184;2023-02-11T08:05:53;7.70;;;2.10;;
16440;SDS011;8330;-33.858;151.184;2023-02-11T08:08:28;9.60;;;2.28;;
16440;SDS011;8330;-33.858;151.184;2023-02-11T08:11:06;9.43;;;3.05;;
16440;SDS011;8330;-33.858;151.184;2023-02-11T08:13:41;7.22;;;2.17;;
16440;SDS011;8330;-33.858;151.184;2023-02-11T08:16:16;5.30;;;2.00;;
16440;SDS011;8330;-33.858;151.184;2023-02-11T08:18:48;7.20;;;2.05;;
16440;SDS011;8330;-33.858;151.184;2023-02-11T08:21:23;6.72;;;1.77;;
16440;SDS011;8330;-33.858;151.184;2023-02-11T08:23:56;9.85;;;2.25;;
16440;SDS011;8330;-33.858;151.184;2023-02-11T08:26:33;11.60;;;2.10;;
16440;SDS011;8330;-33.858;151.184;2023-02-11T08:29:09;7.55;;;2.17;;
16440;SDS011;8330;-33.858;151.184;2023-02-11T08:31:43;7.22;;;2.08;;
16440;SDS011;8330;-33.858;151.184;2023-02-11T08:34:19;6.30;;;1.98;;
16440;SDS011;8330;-33.858;151.184;2023-02-11T08:36:59;6.15;;;2.03;;
16440;SDS011;8330;-33.858;151.184;2023-02-11T08:39:32;8.25;;;2.30;;
16440;SDS011;8330;-33.858;151.184;2023-02-11T08:42:08;13.18;;;2.15;;
16440;SDS011;8330;-33.858;151.184;2023-02-11T08:44:39;7.05;;;2.00;;
16440;SDS011;8330;-33.858;151.184;2023-02-11T08:47:10;7.90;;;2.50;;
16440;SDS011;8330;-33.858;151.184;2023-02-11T08:49:53;10.93;;;2.05;;
16440;SDS011;8330;-33.858;151.184;2023-02-11T08:52:27;8.38;;;2.25;;
16440;SDS011;8330;-33.858;151.184;2023-02-11T08:54:58;6.15;;;1.70;;
16440;SDS011;8330;-33.858;151.184;2023-02-11T08:57:34;9.05;;;1.85;;
16440;SDS011;8330;-33.858;151.184;2023-02-11T09:00:06;8.35;;;2.13;;
16440;SDS011;8330;-33.858;151.184;2023-02-11T09:02:39;12.45;;;2.38;;
16440;SDS011;8330;-33.858;151.184;2023-02-11T09:05:10;6.40;;;1.63;;
16440;SDS011;8330;-33.858;151.184;2023-02-11T09:07:42;9.32;;;2.05;;
16440;SDS011;8330;-33.858;151.184;2023-02-11T09:10:19;7.78;;;2.10;;
16440;SDS011;8330;-33.858;151.184;2023-02-11T09:12:54;6.63;;;2.03;;
16440;SDS011;8330;-33.858;151.184;2023-02-11T09:15:24;6.82;;;1.90;;
16440;SDS011;8330;-33.858;151.184;2023-02-11T09:17:56;8.02;;;2.05;;
16440;SDS011;8330;-33.858;151.184;2023-02-11T09:20:27;7.72;;;2.10;;
16440;SDS011;8330;-33.858;151.184;2023-02-11T09:22:59;7.25;;;2.35;;
16440;SDS011;8330;-33.858;151.184;2023-02-11T09:25:31;11.13;;;2.15;;
16440;SDS011;8330;-33.858;151.184;2023-02-11T09:28:06;4.32;;;1.65;;
16440;SDS011;8330;-33.858;151.184;2023-02-11T09:30:37;7.68;;;2.03;;
16440;SDS011;8330;-33.858;151.184;2023-02-11T09:33:08;8.43;;;2.53;;
16440;SDS011;8330;-33.858;151.184;2023-02-11T09:35:39;7.13;;;2.28;;
16440;SDS011;8330;-33.858;151.184;2023-02-11T09:38:11;8.75;;;2.10;;
16440;SDS011;8330;-33.858;151.184;2023-02-11T09:40:42;8.60;;;2.42;;
16440;SDS011;8330;-33.858;151.184;2023-02-11T09:43:16;11.50;;;2.22;;
16440;SDS011;8330;-33.858;151.184;2023-02-11T09:45:52;8.23;;;2.10;;
16440;SDS011;8330;-33.858;151.184;2023-02-11T09:48:25;9.18;;;2.65;;
16440;SDS011;8330;-33.858;151.184;2023-02-11T09:50:59;8.43;;;2.20;;
16440;SDS011;8330;-33.858;151.184;2023-02-11T09:53:34;6.55;;;2.28;;
16440;SDS011;8330;-33.858;151.184;2023-02-11T09:56:13;5.78;;;2.10;;
16440;SDS011;8330;-33.858;151.184;2023-02-11T09:58:46;10.85;;;2.40;;
16440;SDS011;8330;-33.858;151.184;2023-02-11T10:01:20;9.07;;;2.47;;
16440;SDS011;8330;-33.858;151.184;2023-02-11T10:04:00;9.07;;;2.55;;
16440;SDS011;8330;-33.858;151.184;2023-02-11T10:06:42;10.15;;;2.60;;
16440;SDS011;8330;-33.858;151.184;2023-02-11T10:12:33;11.80;;;2.60;;
16440;SDS011;8330;-33.858;151.184;2023-02-11T10:15:23;7.97;;;2.40;;
16440;SDS011;8330;-33.858;151.184;2023-02-11T10:18:03;9.63;;;2.50;;
16440;SDS011;8330;-33.858;151.184;2023-02-11T10:20:46;11.30;;;2.58;;
16440;SDS011;8330;-33.858;151.184;2023-02-11T10:23:33;9.32;;;2.65;;
16440;SDS011;8330;-33.858;151.184;2023-02-11T10:26:10;13.13;;;2.78;;
16440;SDS011;8330;-33.858;151.184;2023-02-11T10:28:45;10.80;;;2.83;;
16440;SDS011;8330;-33.858;151.184;2023-02-11T10:31:23;9.98;;;2.50;;
16440;SDS011;8330;-33.858;151.184;2023-02-11T10:34:02;13.77;;;2.78;;
16440;SDS011;8330;-33.858;151.184;2023-02-11T10:36:36;10.55;;;2.47;;
16440;SDS011;8330;-33.858;151.184;2023-02-11T10:39:12;12.23;;;2.72;;
16440;SDS011;8330;-33.858;151.184;2023-02-11T10:41:48;13.23;;;3.00;;
16440;SDS011;8330;-33.858;151.184;2023-02-11T10:44:23;11.77;;;2.53;;
16440;SDS011;8330;-33.858;151.184;2023-02-11T10:47:08;13.55;;;2.80;;
16440;SDS011;8330;-33.858;151.184;2023-02-11T10:49:43;12.68;;;3.20;;
16440;SDS011;8330;-33.858;151.184;2023-02-11T10:52:17;12.68;;;2.63;;
16440;SDS011;8330;-33.858;151.184;2023-02-11T10:54:56;12.52;;;2.90;;
16440;SDS011;8330;-33.858;151.184;2023-02-11T10:57:39;12.38;;;2.80;;
16440;SDS011;8330;-33.858;151.184;2023-02-11T11:00:22;11.82;;;2.30;;
16440;SDS011;8330;-33.858;151.184;2023-02-11T11:03:06;13.68;;;3.13;;
16440;SDS011;8330;-33.858;151.184;2023-02-11T11:05:48;12.20;;;2.78;;
16440;SDS011;8330;-33.858;151.184;2023-02-11T11:08:20;13.75;;;2.92;;
16440;SDS011;8330;-33.858;151.184;2023-02-11T11:11:05;12.02;;;3.00;;
16440;SDS011;8330;-33.858;151.184;2023-02-11T11:13:38;11.93;;;2.70;;
16440;SDS011;8330;-33.858;151.184;2023-02-11T11:19:19;11.95;;;2.60;;
16440;SDS011;8330;-33.858;151.184;2023-02-11T11:21:53;11.23;;;3.03;;
16440;SDS011;8330;-33.858;151.184;2023-02-11T11:24:26;9.57;;;2.58;;
16440;SDS011;8330;-33.858;151.184;2023-02-11T11:27:02;10.70;;;2.80;;
16440;SDS011;8330;-33.858;151.184;2023-02-11T11:29:35;13.23;;;2.75;;
16440;SDS011;8330;-33.858;151.184;2023-02-11T11:32:10;13.25;;;3.00;;
16440;SDS011;8330;-33.858;151.184;2023-02-11T11:34:53;12.95;;;3.20;;
16440;SDS011;8330;-33.858;151.184;2023-02-11T11:37:29;16.63;;;3.33;;
16440;SDS011;8330;-33.858;151.184;2023-02-11T11:40:02;12.02;;;3.10;;
16440;SDS011;8330;-33.858;151.184;2023-02-11T11:42:39;11.88;;;3.00;;
16440;SDS011;8330;-33.858;151.184;2023-02-11T11:45:19;12.85;;;3.15;;
16440;SDS011;8330;-33.858;151.184;2023-02-11T11:47:57;11.02;;;3.05;;
16440;SDS011;8330;-33.858;151.184;2023-02-11T11:50:35;13.23;;;2.88;;
16440;SDS011;8330;-33.858;151.184;2023-02-11T11:53:09;11.57;;;2.80;;
16440;SDS011;8330;-33.858;151.184;2023-02-11T11:55:49;11.82;;;3.00;;
16440;SDS011;8330;-33.858;151.184;2023-02-11T11:58:28;14.43;;;2.85;;
16440;SDS011;8330;-33.858;151.184;2023-02-11T12:01:09;18.20;;;3.47;;
16440;SDS011;8330;-33.858;151.184;2023-02-11T12:06:59;13.57;;;3.03;;
16440;SDS011;8330;-33.858;151.184;2023-02-11T12:09:42;11.25;;;2.88;;
16440;SDS011;8330;-33.858;151.184;2023-02-11T12:12:27;12.02;;;2.60;;
16440;SDS011;8330;-33.858;151.184;2023-02-11T12:15:17;10.32;;;2.65;;
16440;SDS011;8330;-33.858;151.184;2023-02-11T12:18:00;10.73;;;3.08;;
16440;SDS011;8330;-33.858;151.184;2023-02-11T12:20:45;9.95;;;2.47;;
16440;SDS011;8330;-33.858;151.184;2023-02-11T12:23:41;11.80;;;2.83;;
16440;SDS011;8330;-33.858;151.184;2023-02-11T12:26:19;12.35;;;2.80;;
16440;SDS011;8330;-33.858;151.184;2023-02-11T12:28:57;10.88;;;3.05;;
16440;SDS011;8330;-33.858;151.184;2023-02-11T12:31:40;12.93;;;3.25;;
16440;SDS011;8330;-33.858;151.184;2023-02-11T12:37:33;11.77;;;2.75;;
16440;SDS011;8330;-33.858;151.184;2023-02-11T12:40:14;16.15;;;3.35;;
16440;SDS011;8330;-33.858;151.184;2023-02-11T12:42:53;11.07;;;2.70;;
16440;SDS011;8330;-33.858;151.184;2023-02-11T12:52:03;9.20;;;2.58;;
16440;SDS011;8330;-33.858;151.184;2023-02-11T12:54:43;10.88;;;2.80;;
16440;SDS011;8330;-33.858;151.184;2023-02-11T12:57:23;12.65;;;3.08;;
16440;SDS011;8330;-33.858;151.184;2023-02-11T12:59:57;10.57;;;2.42;;
16440;SDS011;8330;-33.858;151.184;2023-02-11T13:02:38;7.00;;;2.30;;
16440;SDS011;8330;-33.858;151.184;2023-02-11T13:05:18;11.80;;;2.65;;
16440;SDS011;8330;-33.858;151.184;2023-02-11T13:07:56;9.35;;;2.50;;
16440;SDS011;8330;-33.858;151.184;2023-02-11T13:10:31;10.75;;;2.88;;
16440;SDS011;8330;-33.858;151.184;2023-02-11T13:13:18;13.02;;;3.03;;
16440;SDS011;8330;-33.858;151.184;2023-02-11T13:15:58;7.35;;;2.25;;
16440;SDS011;8330;-33.858;151.184;2023-02-11T13:18:48;11.27;;;2.85;;
16440;SDS011;8330;-33.858;151.184;2023-02-11T13:21:37;9.23;;;2.70;;
16440;SDS011;8330;-33.858;151.184;2023-02-11T13:24:25;10.52;;;2.72;;
16440;SDS011;8330;-33.858;151.184;2023-02-11T13:27:05;13.88;;;2.88;;
16440;SDS011;8330;-33.858;151.184;2023-02-11T13:30:00;11.32;;;2.75;;
16440;SDS011;8330;-33.858;151.184;2023-02-11T13:38:50;7.30;;;2.40;;
16440;SDS011;8330;-33.858;151.184;2023-02-11T13:41:29;10.95;;;2.33;;
16440;SDS011;8330;-33.858;151.184;2023-02-11T13:46:55;9.77;;;2.50;;
16440;SDS011;8330;-33.858;151.184;2023-02-11T13:49:29;12.75;;;2.40;;
16440;SDS011;8330;-33.858;151.184;2023-02-11T13:52:10;7.50;;;2.42;;
16440;SDS011;8330;-33.858;151.184;2023-02-11T13:54:49;8.20;;;2.50;;
16440;SDS011;8330;-33.858;151.184;2023-02-11T13:57:26;8.13;;;2.50;;
16440;SDS011;8330;-33.858;151.184;2023-02-11T14:00:06;10.10;;;2.60;;
16440;SDS011;8330;-33.858;151.184;2023-02-11T14:03:25;13.57;;;2.72;;
16440;SDS011;8330;-33.858;151.184;2023-02-11T14:06:15;11.05;;;3.05;;
16440;SDS011;8330;-33.858;151.184;2023-02-11T14:09:09;10.77;;;2.75;;
16440;SDS011;8330;-33.858;151.184;2023-02-11T14:17:54;7.32;;;2.38;;
16440;SDS011;8330;-33.858;151.184;2023-02-11T14:20:38;14.80;;;2.95;;
16440;SDS011;8330;-33.858;151.184;2023-02-11T14:23:22;7.93;;;2.65;;
16440;SDS011;8330;-33.858;151.184;2023-02-11T14:26:14;10.57;;;2.70;;
16440;SDS011;8330;-33.858;151.184;2023-02-11T14:29:05;14.07;;;2.92;;
16440;SDS011;8330;-33.858;151.184;2023-02-11T14:31:45;11.00;;;2.80;;
16440;SDS011;8330;-33.858;151.184;2023-02-11T14:34:30;10.30;;;2.85;;
16440;SDS011;8330;-33.858;151.184;2023-02-11T14:40:15;9.05;;;3.05;;
16440;SDS011;8330;-33.858;151.184;2023-02-11T14:42:54;6.15;;;2.22;;
16440;SDS011;8330;-33.858;151.184;2023-02-11T14:45:33;9.13;;;2.55;;
16440;SDS011;8330;-33.858;151.184;2023-02-11T14:48:06;10.55;;;2.20;;
16440;SDS011;8330;-33.858;151.184;2023-02-11T14:50:43;7.88;;;2.45;;
16440;SDS011;8330;-33.858;151.184;2023-02-11T14:53:19;6.35;;;2.10;;
16440;SDS011;8330;-33.858;151.184;2023-02-11T14:55:53;8.68;;;2.70;;
16440;SDS011;8330;-33.858;151.184;2023-02-11T14:58:24;9.30;;;2.72;;
16440;SDS011;8330;-33.858;151.184;2023-02-11T15:00:57;10.80;;;2.47;;
16440;SDS011;8330;-33.858;151.184;2023-02-11T15:03:34;8.88;;;2.67;;
16440;SDS011;8330;-33.858;151.184;2023-02-11T15:06:11;6.65;;;2.33;;
16440;SDS011;8330;-33.858;151.184;2023-02-11T15:08:50;6.25;;;2.35;;
16440;SDS011;8330;-33.858;151.184;2023-02-11T15:11:23;7.70;;;2.40;;
16440;SDS011;8330;-33.858;151.184;2023-02-11T15:13:55;10.50;;;2.40;;
16440;SDS011;8330;-33.858;151.184;2023-02-11T15:16:29;7.60;;;2.30;;
16440;SDS011;8330;-33.858;151.184;2023-02-11T15:19:01;8.18;;;2.40;;
16440;SDS011;8330;-33.858;151.184;2023-02-11T15:21:34;7.53;;;2.35;;
16440;SDS011;8330;-33.858;151.184;2023-02-11T15:24:19;8.25;;;2.40;;
16440;SDS011;8330;-33.858;151.184;2023-02-11T15:26:56;4.90;;;2.00;;
16440;SDS011;8330;-33.858;151.184;2023-02-11T15:29:33;7.80;;;2.67;;
16440;SDS011;8330;-33.858;151.184;2023-02-11T15:32:06;10.25;;;2.50;;
16440;SDS011;8330;-33.858;151.184;2023-02-11T15:34:42;11.13;;;2.80;;
16440;SDS011;8330;-33.858;151.184;2023-02-11T15:37:13;8.95;;;2.60;;
16440;SDS011;8330;-33.858;151.184;2023-02-11T15:39:50;9.75;;;2.55;;
16440;SDS011;8330;-33.858;151.184;2023-02-11T15:42:23;7.80;;;2.35;;
16440;SDS011;8330;-33.858;151.184;2023-02-11T15:45:09;6.85;;;2.78;;
16440;SDS011;8330;-33.858;151.184;2023-02-11T15:47:54;6.88;;;2.60;;
16440;SDS011;8330;-33.858;151.184;2023-02-11T15:50:27;6.47;;;2.38;;
16440;SDS011;8330;-33.858;151.184;2023-02-11T15:53:02;7.53;;;2.45;;
16440;SDS011;8330;-33.858;151.184;2023-02-11T15:55:53;6.55;;;2.40;;
16440;SDS011;8330;-33.858;151.184;2023-02-11T15:58:35;6.00;;;2.30;;